Punto Fijo, Venezuela
Current Conditions -  °F | °C
As of 11:00 PM on Sunday 23 Nov 2014 (Local Time) from TNCA Reporting Station
Few Clouds Few Clouds  
Wind Chill: 82°   Ceiling: Unl
Heat Index: 89°   Visibility: 6mi
Dew Point: 75°   Wind: 18mph
Humidity: 79%   Direction: 80°E
Pressure: 29.85"   Gusts: NA
Location:  11.71°N, 70.2°W
Report Text: TNCA 240300Z 08016KT 050V110 9999 FEW019 28/24 Q1011 A2987 NOSIG
Loading
Personal Weather Stations






























Interactive Weather Map New forecast layout! Learn more

10-Day Weather Forecast

Advertisements
Track Severe Weather on mobile